createdAt,value
2019-05-10T00:00:41.307Z,100163.29
2019-05-10T00:03:28.510Z,100163.55
2019-05-10T00:06:16.069Z,100161.11
2019-05-10T00:08:47.743Z,100161.73
2019-05-10T00:11:42.541Z,100163.20
2019-05-10T00:14:18.505Z,100162.13
2019-05-10T00:16:49.401Z,100157.89
2019-05-10T00:19:19.193Z,100165.73
2019-05-10T00:21:48.958Z,100168.41
2019-05-10T00:24:18.838Z,100171.56
2019-05-10T00:26:48.596Z,100168.38
2019-05-10T00:29:18.892Z,100170.14
2019-05-10T00:31:48.703Z,100168.52
2019-05-10T00:34:18.366Z,100163.41
2019-05-10T00:36:48.143Z,100161.41
2019-05-10T00:39:19.511Z,100166.05
2019-05-10T00:41:49.394Z,100161.73
2019-05-10T00:44:19.088Z,100155.27
2019-05-10T00:46:48.899Z,100157.46
2019-05-10T00:49:18.555Z,100158.71
2019-05-10T00:52:03.357Z,100156.04
2019-05-10T00:54:33.012Z,100162.71
2019-05-10T00:57:02.735Z,100162.41
2019-05-10T00:59:32.565Z,100158.83
2019-05-10T01:02:02.298Z,100156.61
2019-05-10T01:04:31.986Z,100165.42
2019-05-10T01:07:01.698Z,100158.17
2019-05-10T01:09:31.381Z,100166.48
2019-05-10T01:12:01.125Z,100168.31
2019-05-10T01:14:30.981Z,100163.20
2019-05-10T01:17:00.796Z,100171.16
2019-05-10T01:19:30.753Z,100169.39
2019-05-10T01:22:00.552Z,100175.61
2019-05-10T01:24:30.283Z,100166.89
2019-05-10T01:27:00.076Z,100171.58
2019-05-10T01:29:29.924Z,100167.29
2019-05-10T01:31:59.874Z,100175.61
2019-05-10T01:34:29.547Z,100176.32
2019-05-10T01:36:59.524Z,100177.62
2019-05-10T01:39:29.232Z,100181.67
2019-05-10T01:41:59.027Z,100179.31
2019-05-10T01:44:28.801Z,100187.19
2019-05-10T01:46:58.472Z,100185.37
2019-05-10T01:49:28.220Z,100179.31
2019-05-10T01:51:57.970Z,100179.85
2019-05-10T01:54:27.786Z,100182.16
2019-05-10T01:56:57.582Z,100187.02
2019-05-10T01:59:27.304Z,100184.34
2019-05-10T02:01:57.015Z,100192.84
2019-05-10T02:04:26.788Z,100191.50
2019-05-10T02:06:56.625Z,100191.27
2019-05-10T02:09:26.354Z,100194.70
2019-05-10T02:11:56.037Z,100197.07
2019-05-10T02:14:25.804Z,100195.86
2019-05-10T02:16:55.811Z,100192.66
2019-05-10T02:19:25.507Z,100199.56
2019-05-10T02:21:55.319Z,100195.27
2019-05-10T02:24:25.107Z,100200.84
2019-05-10T02:26:54.878Z,100206.28
2019-05-10T02:29:24.606Z,100197.55
2019-05-10T02:31:54.395Z,100206.71
2019-05-10T02:34:24.137Z,100202.84
2019-05-10T02:36:54.132Z,100205.30
2019-05-10T02:39:23.911Z,100209.13
2019-05-10T02:41:53.759Z,100210.98
2019-05-10T02:44:23.488Z,100213.75
2019-05-10T02:46:53.215Z,100213.21
2019-05-10T02:49:22.911Z,100208.91
2019-05-10T02:51:52.635Z,100214.32
2019-05-10T02:54:22.646Z,100222.10
2019-05-10T02:56:54.035Z,100219.35
2019-05-10T02:59:24.341Z,100219.89
2019-05-10T03:01:57.184Z,100224.51
2019-05-10T03:04:28.505Z,100221.66
2019-05-10T03:07:04.040Z,100233.08
2019-05-10T03:09:35.645Z,100226.59
2019-05-10T03:12:24.587Z,100233.92
2019-05-10T03:14:58.332Z,100230.84
2019-05-10T03:17:29.181Z,100236.05
2019-05-10T03:20:01.774Z,100240.61
2019-05-10T03:22:36.045Z,100246.55
2019-05-10T03:25:07.491Z,100250.24
2019-05-10T03:27:37.894Z,100246.67
2019-05-10T03:30:08.604Z,100250.29
2019-05-10T03:32:38.310Z,100250.98
2019-05-10T03:35:10.121Z,100252.97
2019-05-10T03:37:40.577Z,100259.83
2019-05-10T03:40:10.477Z,100263.09
2019-05-10T03:42:40.394Z,100262.72
2019-05-10T03:45:11.128Z,100264.63
2019-05-10T03:47:40.944Z,100269.52
2019-05-10T03:50:11.126Z,100283.16
2019-05-10T03:52:40.913Z,100283.95
2019-05-10T03:55:10.927Z,100295.36
2019-05-10T03:57:40.683Z,100288.19
2019-05-10T04:00:13.992Z,100290.71
2019-05-10T04:02:43.659Z,100296.66
2019-05-10T04:05:13.781Z,100296.00
2019-05-10T04:07:43.734Z,100301.80
2019-05-10T04:10:13.871Z,100303.20
2019-05-10T04:12:43.561Z,100299.77
2019-05-10T04:15:13.706Z,100307.09
2019-05-10T04:17:43.524Z,100310.33
2019-05-10T04:20:13.739Z,100310.89
2019-05-10T04:22:43.638Z,100316.23
2019-05-10T04:25:15.410Z,100323.24
2019-05-10T04:27:45.166Z,100324.04
2019-05-10T04:30:15.803Z,100316.77
2019-05-10T04:32:45.466Z,100332.16
2019-05-10T04:35:15.575Z,100339.59
2019-05-10T04:37:45.611Z,100344.77
2019-05-10T04:40:15.613Z,100344.52
2019-05-10T04:42:45.406Z,100353.28
2019-05-10T04:45:16.058Z,100354.53
2019-05-10T04:47:45.725Z,100361.77
2019-05-10T04:50:15.647Z,100361.77
2019-05-10T04:52:45.379Z,100360.43
2019-05-10T04:55:15.089Z,100370.98
2019-05-10T04:57:50.743Z,100364.81
2019-05-10T05:00:16.673Z,100377.29
2019-05-10T05:02:46.409Z,100377.86
2019-05-10T05:05:16.454Z,100378.16
2019-05-10T05:07:46.238Z,100386.05
2019-05-10T05:10:15.922Z,100385.29
2019-05-10T05:12:45.601Z,100384.56
2019-05-10T05:15:17.032Z,100391.95
2019-05-10T05:17:46.811Z,100394.59
2019-05-10T05:20:18.201Z,100395.12
2019-05-10T05:22:48.239Z,100403.86
2019-05-10T05:25:21.626Z,100405.56
2019-05-10T05:28:05.339Z,100411.39
2019-05-10T05:30:21.660Z,100414.26
2019-05-10T05:32:51.363Z,100418.92
2019-05-10T05:35:21.130Z,100419.72
2019-05-10T05:37:51.005Z,100423.22
2019-05-10T05:40:20.895Z,100423.03
2019-05-10T05:42:50.653Z,100429.79
2019-05-10T05:45:20.476Z,100434.48
2019-05-10T05:47:50.235Z,100435.67
2019-05-10T05:50:20.277Z,100436.83
2019-05-10T05:52:50.139Z,100441.02
2019-05-10T05:55:22.930Z,100443.23
2019-05-10T05:57:51.450Z,100436.52
2019-05-10T06:00:21.332Z,100435.56
2019-05-10T06:02:51.110Z,100436.61
2019-05-10T06:05:33.487Z,100441.12
2019-05-10T06:07:52.948Z,100448.04
2019-05-10T06:10:22.957Z,100446.76
2019-05-10T06:12:52.939Z,100450.56
2019-05-10T06:15:28.778Z,100459.61
2019-05-10T06:17:57.253Z,100462.31
2019-05-10T06:20:26.675Z,100466.44
2019-05-10T06:23:06.396Z,100470.98
2019-05-10T06:25:39.284Z,100472.28
2019-05-10T06:27:59.601Z,100479.19
2019-05-10T06:30:29.526Z,100476.96
2019-05-10T06:33:11.481Z,100484.05
2019-05-10T06:35:30.840Z,100477.60
2019-05-10T06:38:00.700Z,100478.81
2019-05-10T06:40:34.775Z,100481.09
2019-05-10T06:43:07.090Z,100486.94
2019-05-10T06:45:33.570Z,100487.73
2019-05-10T06:48:03.272Z,100499.30
2019-05-10T06:50:33.019Z,100500.81
2019-05-10T06:53:07.787Z,100509.80
2019-05-10T06:55:34.323Z,100511.98
2019-05-10T06:58:04.404Z,100517.97
2019-05-10T07:00:37.918Z,100518.73
2019-05-10T07:03:05.698Z,100523.60
2019-05-10T07:05:35.452Z,100527.77
2019-05-10T07:08:14.987Z,100531.91
2019-05-10T07:10:36.542Z,100539.27
2019-05-10T07:13:06.929Z,100540.19
2019-05-10T07:15:42.033Z,100535.20
2019-05-10T07:18:08.744Z,100548.14
2019-05-10T07:20:38.508Z,100550.04
2019-05-10T07:23:08.289Z,100557.20
2019-05-10T07:25:43.468Z,100557.69
2019-05-10T07:28:15.476Z,100562.85
2019-05-10T07:30:41.859Z,100560.89
2019-05-10T07:33:11.637Z,100573.23
2019-05-10T07:35:41.304Z,100576.89
2019-05-10T07:38:11.060Z,100578.00
2019-05-10T07:40:40.747Z,100576.52
2019-05-10T07:43:10.718Z,100584.67
2019-05-10T07:45:40.410Z,100588.78
2019-05-10T07:48:10.504Z,100593.74
2019-05-10T07:50:42.263Z,100585.61
2019-05-10T07:53:16.422Z,100594.78
2019-05-10T07:55:43.310Z,100599.47
2019-05-10T07:58:13.009Z,100597.92
2019-05-10T08:00:44.732Z,100600.44
2019-05-10T08:03:17.605Z,100603.03
2019-05-10T08:05:51.041Z,100609.30
2019-05-10T08:08:19.229Z,100613.15
2019-05-10T08:10:49.098Z,100611.94
2019-05-10T08:13:21.240Z,100610.91
2019-05-10T08:15:50.343Z,100611.17
2019-05-10T08:18:24.135Z,100610.30
2019-05-10T08:20:57.765Z,100607.56
2019-05-10T08:23:27.750Z,100604.95
2019-05-10T08:25:54.508Z,100605.08
2019-05-10T08:28:28.007Z,100611.23
2019-05-10T08:30:58.691Z,100620.29
2019-05-10T08:33:27.375Z,100621.78
2019-05-10T08:36:00.750Z,100630.55
2019-05-10T08:38:28.621Z,100634.85
2019-05-10T08:40:58.356Z,100637.23
2019-05-10T08:43:33.138Z,100641.73
2019-05-10T08:45:59.595Z,100640.27
2019-05-10T08:48:30.020Z,100645.99
2019-05-10T08:51:04.073Z,100648.73
2019-05-10T08:53:32.921Z,100650.84
2019-05-10T08:56:07.503Z,100652.86
2019-05-10T08:58:37.080Z,100659.89
2019-05-10T09:01:20.563Z,100660.27
2019-05-10T09:03:37.174Z,100665.16
2019-05-10T09:06:11.692Z,100664.39
2019-05-10T09:08:38.588Z,100669.66
2019-05-10T09:11:08.664Z,100674.23
2019-05-10T09:13:41.394Z,100683.89
2019-05-10T09:16:09.955Z,100689.09
2019-05-10T09:18:46.775Z,100686.96
2019-05-10T09:21:14.221Z,100687.95
2019-05-10T09:23:42.809Z,100693.05
2019-05-10T09:26:16.367Z,100689.77
2019-05-10T09:28:47.599Z,100697.58
2019-05-10T09:31:21.296Z,100706.11
2019-05-10T09:33:49.425Z,100705.27
2019-05-10T09:36:23.146Z,100709.47
2019-05-10T09:38:52.512Z,100713.78
2019-05-10T09:41:22.624Z,100717.49
2019-05-10T09:43:53.765Z,100720.43
2019-05-10T09:46:23.640Z,100729.38
2019-05-10T09:48:54.693Z,100729.16
2019-05-10T09:51:30.132Z,100727.91
2019-05-10T09:53:57.609Z,100732.50
2019-05-10T09:56:32.816Z,100729.35
2019-05-10T09:58:59.408Z,100728.16
2019-05-10T10:01:29.072Z,100728.34
2019-05-10T10:04:02.130Z,100729.22
2019-05-10T10:06:30.190Z,100730.31
2019-05-10T10:09:01.028Z,100735.54
2019-05-10T10:11:30.907Z,100745.25
2019-05-10T10:14:02.175Z,100742.97
2019-05-10T10:16:32.135Z,100739.81
2019-05-10T10:19:01.823Z,100742.92
2019-05-10T10:21:35.573Z,100750.98
2019-05-10T10:24:12.599Z,100751.91
2019-05-10T10:26:34.595Z,100746.00
2019-05-10T10:29:04.347Z,100746.06
2019-05-10T10:31:48.356Z,100748.91
2019-05-10T10:34:07.625Z,100750.98
2019-05-10T10:36:40.409Z,100749.07
2019-05-10T10:39:08.953Z,100752.55
2019-05-10T10:41:38.638Z,100755.24
2019-05-10T10:44:08.507Z,100757.84
2019-05-10T10:46:38.221Z,100753.23
2019-05-10T10:49:10.430Z,100751.05
2019-05-10T10:51:39.269Z,100756.97
2019-05-10T10:54:09.032Z,100752.39
2019-05-10T10:56:39.150Z,100752.72
2019-05-10T10:59:08.798Z,100747.64
2019-05-10T11:01:49.476Z,100754.41
2019-05-10T11:04:09.973Z,100751.72
2019-05-10T11:06:39.747Z,100754.41
2019-05-10T11:09:10.110Z,100757.62
2019-05-10T11:11:44.266Z,100755.77
2019-05-10T11:14:11.383Z,100760.58
2019-05-10T11:16:41.415Z,100755.39
2019-05-10T11:19:15.530Z,100757.65
2019-05-10T11:21:42.579Z,100759.62
2019-05-10T11:24:18.199Z,100757.59
2019-05-10T11:26:44.935Z,100762.30
2019-05-10T11:29:25.327Z,100766.53
2019-05-10T11:31:53.495Z,100760.98
2019-05-10T11:34:18.159Z,100765.39
2019-05-10T11:36:48.381Z,100770.27
2019-05-10T11:39:26.235Z,100775.76
2019-05-10T11:41:52.865Z,100771.61
2019-05-10T11:44:22.826Z,100778.39
2019-05-10T11:46:52.593Z,100787.00
2019-05-10T11:49:22.446Z,100785.14
2019-05-10T11:51:54.941Z,100791.79
2019-05-10T11:54:23.787Z,100789.68
2019-05-10T11:56:58.476Z,100792.17
2019-05-10T12:04:36.268Z,100792.84
2019-05-10T12:07:01.789Z,100798.33
2019-05-10T12:09:31.635Z,100798.68
2019-05-10T12:12:03.340Z,100796.31
2019-05-10T12:14:33.100Z,100804.88
2019-05-10T12:17:06.351Z,100804.65
2019-05-10T12:19:47.875Z,100802.58
2019-05-10T12:22:05.972Z,100804.72
2019-05-10T12:24:52.101Z,100804.58
2019-05-10T12:26:03.777Z,100796.06
2019-05-10T12:26:16.348Z,100788.75
2019-05-10T12:27:18.982Z,100800.16
2019-05-10T12:29:38.712Z,100808.06
2019-05-10T12:32:10.401Z,100802.95
2019-05-10T12:34:41.059Z,100803.14
2019-05-10T12:37:11.029Z,100800.19
2019-05-10T12:39:40.740Z,100806.53
2019-05-10T12:44:43.999Z,100808.55
2019-05-10T12:47:12.360Z,100807.45
2019-05-10T12:49:42.085Z,100812.27
2019-05-10T12:52:14.052Z,100811.62
2019-05-10T12:54:43.709Z,100807.94
2019-05-10T12:57:13.424Z,100811.68
2019-05-10T12:59:43.080Z,100815.42
2019-05-10T13:02:13.183Z,100809.02
2019-05-10T13:04:47.058Z,100814.44
2019-05-10T13:07:14.819Z,100807.95
2019-05-10T13:09:44.548Z,100807.63
2019-05-10T13:12:14.606Z,100809.94
2019-05-10T13:14:46.483Z,100812.02
2019-05-10T13:17:17.143Z,100808.61
2019-05-10T13:19:47.137Z,100798.79
2019-05-10T13:22:16.841Z,100804.44
2019-05-10T13:24:46.695Z,100809.28
2019-05-10T13:27:16.521Z,100804.70
2019-05-10T13:29:50.451Z,100804.98
2019-05-10T13:32:20.543Z,100804.42
2019-05-10T13:34:49.215Z,100800.16
2019-05-10T13:37:23.543Z,100807.50
2019-05-10T13:39:50.353Z,100803.89
2019-05-10T13:42:20.056Z,100803.54
2019-05-10T13:44:49.873Z,100800.41
2019-05-10T13:47:19.585Z,100805.44
2019-05-10T13:49:49.522Z,100800.81
2019-05-10T13:52:19.242Z,100796.90
2019-05-10T13:54:49.093Z,100799.95
2019-05-10T13:57:18.829Z,100799.91
2019-05-10T13:59:54.401Z,100795.38
2019-05-10T14:02:22.843Z,100801.94
2019-05-10T14:04:51.530Z,100810.84
2019-05-10T14:07:21.181Z,100840.47
2019-05-10T14:09:50.869Z,100844.28
2019-05-10T14:12:23.109Z,100856.31
2019-05-10T14:14:55.401Z,100867.02
2019-05-10T14:17:23.498Z,100875.26
2019-05-10T14:19:53.149Z,100871.00
2019-05-10T14:22:22.900Z,100871.55
2019-05-10T14:24:55.512Z,100872.48
2019-05-10T14:27:24.431Z,100867.95
2019-05-10T14:29:54.227Z,100865.69
2019-05-10T14:32:24.120Z,100861.70
2019-05-10T14:34:53.825Z,100856.02
2019-05-10T14:37:23.510Z,100861.92
2019-05-10T14:39:53.226Z,100860.33
2019-05-10T14:42:30.831Z,100861.63
2019-05-10T14:44:54.814Z,100862.78
2019-05-10T14:47:24.496Z,100861.38
2019-05-10T14:49:54.241Z,100868.73
2019-05-10T14:52:24.080Z,100864.61
2019-05-10T14:54:55.401Z,100865.07
2019-05-10T14:57:25.359Z,100861.33
2019-05-10T14:59:55.073Z,100857.25
2019-05-10T15:02:25.179Z,100856.25
2019-05-10T15:04:55.029Z,100852.08
2019-05-10T15:07:24.768Z,100846.33
2019-05-10T15:12:25.966Z,100845.48
2019-05-10T15:14:55.660Z,100846.30
2019-05-10T15:17:29.557Z,100851.80
2019-05-10T15:19:59.750Z,100850.59
2019-05-10T15:22:28.574Z,100855.02
2019-05-10T15:24:58.285Z,100852.79
2019-05-10T15:27:27.999Z,100861.00
2019-05-10T15:29:58.795Z,100861.54
2019-05-10T15:32:29.424Z,100856.17
2019-05-10T15:35:08.294Z,100855.61
2019-05-10T15:37:30.569Z,100858.47
2019-05-10T15:40:05.449Z,100856.99
2019-05-10T15:42:36.125Z,100863.47
2019-05-10T15:45:05.161Z,100862.06
2019-05-10T15:47:48.932Z,100867.55
2019-05-10T15:50:07.664Z,100866.11
2019-05-10T15:52:39.661Z,100868.25
2019-05-10T15:55:09.811Z,100872.65
2019-05-10T15:57:39.457Z,100871.48
2019-05-10T16:00:10.258Z,100881.02
2019-05-10T16:02:40.049Z,100885.50
2019-05-10T16:05:25.623Z,100894.64
2019-05-10T16:07:46.575Z,100903.41
2019-05-10T16:10:14.443Z,100916.55
2019-05-10T16:12:44.706Z,100948.96
2019-05-10T16:15:20.137Z,100950.44
2019-05-10T16:17:46.537Z,100944.17
2019-05-10T16:20:16.535Z,100937.73
2019-05-10T16:22:46.274Z,100942.07
2019-05-10T16:25:16.147Z,100939.47
2019-05-10T16:27:45.837Z,100930.38
2019-05-10T16:30:18.025Z,100921.72
2019-05-10T16:32:47.509Z,100904.55
2019-05-10T16:35:17.241Z,100904.55
2019-05-10T16:37:46.999Z,100906.67
2019-05-10T16:40:16.902Z,100902.80
2019-05-10T16:42:46.634Z,100917.55
2019-05-10T16:45:16.698Z,100918.88
2019-05-10T16:47:46.446Z,100922.69
2019-05-10T16:50:16.544Z,100919.00
2019-05-10T16:52:46.256Z,100913.28
2019-05-10T16:55:16.123Z,100911.56
2019-05-10T16:57:45.845Z,100903.05
2019-05-10T17:00:16.166Z,100901.97
2019-05-10T17:02:45.881Z,100898.13
2019-05-10T17:05:17.455Z,100897.84
2019-05-10T17:07:47.388Z,100890.86
2019-05-10T17:10:17.395Z,100889.53
2019-05-10T17:12:47.146Z,100888.96
2019-05-10T17:15:17.239Z,100882.40
2019-05-10T17:17:46.912Z,100876.00
2019-05-10T17:20:17.415Z,100872.00
2019-05-10T17:22:47.230Z,100872.11
2019-05-10T17:25:17.293Z,100866.09
2019-05-10T17:27:50.653Z,100863.59
2019-05-10T17:30:22.048Z,100864.28
2019-05-10T17:32:50.603Z,100865.89
2019-05-10T17:35:20.598Z,100862.22
2019-05-10T17:37:52.986Z,100856.34
2019-05-10T17:40:23.486Z,100859.05
2019-05-10T17:42:53.170Z,100860.52
2019-05-10T17:45:25.008Z,100859.19
2019-05-10T17:47:54.866Z,100858.91
2019-05-10T17:50:24.581Z,100857.95
2019-05-10T17:52:54.459Z,100859.86
2019-05-10T17:55:25.593Z,100864.84
2019-05-10T17:57:56.625Z,100868.77
2019-05-10T18:00:26.611Z,100866.83
2019-05-10T18:02:56.383Z,100869.84
2019-05-10T18:05:26.127Z,100869.73
2019-05-10T18:07:55.775Z,100871.14
2019-05-10T18:10:25.652Z,100874.48
2019-05-10T18:12:57.579Z,100878.52
2019-05-10T18:15:27.655Z,100876.22
2019-05-10T18:18:02.743Z,100882.20
2019-05-10T18:20:36.026Z,100887.19
2019-05-10T18:23:01.306Z,100885.71
2019-05-10T18:25:31.052Z,100876.42
2019-05-10T18:28:00.940Z,100883.63
2019-05-10T18:30:30.616Z,100893.72
2019-05-10T18:33:00.410Z,100897.20
2019-05-10T18:35:30.172Z,100892.95
2019-05-10T18:38:00.916Z,100896.81
2019-05-10T18:40:32.155Z,100896.75
2019-05-10T18:43:04.472Z,100901.09
2019-05-10T18:45:34.748Z,100909.48
2019-05-10T18:48:04.722Z,100907.63
2019-05-10T18:50:39.609Z,100910.43
2019-05-10T18:53:06.230Z,100907.47
2019-05-10T18:55:36.262Z,100907.41
2019-05-10T18:58:06.023Z,100901.91
2019-05-10T19:00:36.065Z,100897.75
2019-05-10T19:03:05.832Z,100895.29
2019-05-10T19:05:35.540Z,100894.31
2019-05-10T19:08:06.097Z,100890.84
2019-05-10T19:10:36.373Z,100891.06
2019-05-10T19:13:06.565Z,100884.97
2019-05-10T19:15:36.508Z,100890.55
2019-05-10T19:18:06.346Z,100887.27
2019-05-10T19:20:36.182Z,100883.05
2019-05-10T19:23:06.016Z,100892.91
2019-05-10T19:25:37.829Z,100898.47
2019-05-10T19:28:07.266Z,100909.88
2019-05-10T19:30:37.326Z,100909.06
2019-05-10T19:33:07.144Z,100909.55
2019-05-10T19:35:37.952Z,100919.51
2019-05-10T19:38:07.898Z,100910.70
2019-05-10T19:40:37.743Z,100921.37
2019-05-10T19:43:07.446Z,100926.19
2019-05-10T19:45:37.245Z,100932.16
2019-05-10T19:48:07.047Z,100932.45
2019-05-10T19:50:36.789Z,100936.35
2019-05-10T19:53:06.687Z,100928.22
2019-05-10T19:55:36.478Z,100933.42
2019-05-10T19:58:06.906Z,100937.13
2019-05-10T20:00:36.636Z,100935.75
2019-05-10T20:03:06.882Z,100937.03
2019-05-10T20:05:36.807Z,100937.50
2019-05-10T20:08:06.757Z,100939.88
2019-05-10T20:10:36.854Z,100939.03
2019-05-10T20:13:09.304Z,100939.02
2019-05-10T20:15:43.439Z,100943.50
2019-05-10T20:18:10.697Z,100951.72
2019-05-10T20:20:40.519Z,100943.49
2019-05-10T20:23:10.274Z,100944.35
2019-05-10T20:25:40.001Z,100942.42
2019-05-10T20:28:09.720Z,100938.75
2019-05-10T20:30:39.469Z,100940.12
2019-05-10T20:33:09.280Z,100929.81
2019-05-10T20:35:39.061Z,100932.24
2019-05-10T20:38:08.781Z,100930.14
2019-05-10T20:40:38.518Z,100934.70
2019-05-10T20:43:08.341Z,100934.33
2019-05-10T20:45:38.206Z,100938.84
2019-05-10T20:48:07.983Z,100936.91
2019-05-10T20:50:37.709Z,100939.00
2019-05-10T20:53:07.410Z,100931.23
2019-05-10T20:55:37.121Z,100928.34
2019-05-10T20:58:06.967Z,100915.55
2019-05-10T21:00:36.873Z,100920.21
2019-05-10T21:03:06.756Z,100923.67
2019-05-10T21:05:36.573Z,100909.34
2019-05-10T21:08:16.664Z,100918.92
2019-05-10T21:10:37.728Z,100920.48
2019-05-10T21:13:07.502Z,100923.62
2019-05-10T21:15:37.281Z,100916.38
2019-05-10T21:18:07.011Z,100916.91
2019-05-10T21:20:36.745Z,100919.67
2019-05-10T21:23:06.753Z,100911.68
2019-05-10T21:25:36.719Z,100919.06
2019-05-10T21:28:06.475Z,100908.88
2019-05-10T21:30:36.239Z,100917.38
2019-05-10T21:33:06.029Z,100911.67
2019-05-10T21:35:35.810Z,100910.58
2019-05-10T21:38:05.635Z,100897.94
2019-05-10T21:40:35.854Z,100892.17
2019-05-10T21:43:05.664Z,100884.80
2019-05-10T21:45:35.775Z,100874.43
2019-05-10T21:48:05.556Z,100878.38
2019-05-10T21:50:35.230Z,100886.03
2019-05-10T21:53:05.081Z,100882.52
2019-05-10T21:55:34.823Z,100885.45
2019-05-10T21:58:04.696Z,100895.08
2019-05-10T22:00:38.752Z,100892.41
2019-05-10T22:03:08.472Z,100884.89
2019-05-10T22:05:38.227Z,100889.31
2019-05-10T22:08:08.173Z,100889.57
2019-05-10T22:10:38.039Z,100890.08
2019-05-10T22:13:07.762Z,100889.75
2019-05-10T22:15:37.577Z,100889.45
2019-05-10T22:18:07.282Z,100886.52
2019-05-10T22:20:37.053Z,100883.84
2019-05-10T22:23:06.780Z,100874.80
2019-05-10T22:25:36.542Z,100874.95
2019-05-10T22:28:06.531Z,100865.92
2019-05-10T22:30:36.376Z,100853.41
2019-05-10T22:33:06.190Z,100859.88
2019-05-10T22:35:35.925Z,100878.00
2019-05-10T22:38:05.797Z,100868.10
2019-05-10T22:40:35.707Z,100869.11
2019-05-10T22:43:05.516Z,100872.00
2019-05-10T22:45:36.181Z,100866.63
2019-05-10T22:48:07.622Z,100869.57
2019-05-10T22:50:37.415Z,100866.72
2019-05-10T22:53:07.123Z,100859.50
2019-05-10T22:55:37.069Z,100856.83
2019-05-10T22:58:06.870Z,100849.84
2019-05-10T23:00:36.725Z,100840.75
2019-05-10T23:03:06.597Z,100844.62
2019-05-10T23:05:36.282Z,100844.75
2019-05-10T23:08:06.003Z,100841.34
2019-05-10T23:10:35.656Z,100844.77
2019-05-10T23:13:05.574Z,100838.33
2019-05-10T23:15:36.825Z,100830.69
2019-05-10T23:18:06.780Z,100829.36
2019-05-10T23:20:36.535Z,100823.17
2019-05-10T23:23:06.376Z,100814.66
2019-05-10T23:25:36.125Z,100822.70
2019-05-10T23:28:07.451Z,100825.55
2019-05-10T23:30:37.152Z,100829.50
2019-05-10T23:33:06.926Z,100825.73
2019-05-10T23:35:37.758Z,100827.34
2019-05-10T23:38:07.707Z,100822.41
2019-05-10T23:40:37.493Z,100831.20
2019-05-10T23:43:07.255Z,100821.65
2019-05-10T23:45:37.111Z,100823.27
2019-05-10T23:48:06.959Z,100825.84
2019-05-10T23:50:36.802Z,100819.26
2019-05-10T23:53:06.564Z,100806.84
2019-05-10T23:55:36.249Z,100812.98
2019-05-10T23:58:06.085Z,100806.55
